createdAt,value
2018-05-10T00:00:39.749Z,21.78
2018-05-10T00:01:39.812Z,21.75
2018-05-10T00:02:39.762Z,21.68
2018-05-10T00:03:39.775Z,21.75
2018-05-10T00:04:39.825Z,21.68
2018-05-10T00:05:39.845Z,21.66
2018-05-10T00:06:39.855Z,21.58
2018-05-10T00:07:39.871Z,21.60
2018-05-10T00:08:39.862Z,21.63
2018-05-10T00:09:39.935Z,21.60
2018-05-10T00:10:39.896Z,21.53
2018-05-10T00:11:39.928Z,21.48
2018-05-10T00:12:39.887Z,21.51
2018-05-10T00:13:39.909Z,21.56
2018-05-10T00:14:39.908Z,21.54
2018-05-10T00:15:39.924Z,21.54
2018-05-10T00:16:40.013Z,21.59
2018-05-10T00:17:39.966Z,21.53
2018-05-10T00:18:39.962Z,21.58
2018-05-10T00:19:40.015Z,21.51
2018-05-10T00:20:40.071Z,21.43
2018-05-10T00:21:40.006Z,21.40
2018-05-10T00:22:40.026Z,21.44
2018-05-10T00:23:40.075Z,21.41
2018-05-10T00:24:40.061Z,21.44
2018-05-10T00:25:40.064Z,21.47
2018-05-10T00:26:40.081Z,21.44
2018-05-10T00:27:40.101Z,21.43
2018-05-10T00:28:40.153Z,21.37
2018-05-10T00:29:40.114Z,21.47
2018-05-10T00:30:40.182Z,21.37
2018-05-10T00:31:40.135Z,21.33
2018-05-10T00:32:40.179Z,21.33
2018-05-10T00:33:40.175Z,21.38
2018-05-10T00:34:40.234Z,21.33
2018-05-10T00:35:40.250Z,21.33
2018-05-10T00:36:40.264Z,21.33
2018-05-10T00:37:40.257Z,21.26
2018-05-10T00:38:40.284Z,21.29
2018-05-10T00:39:40.310Z,21.32
2018-05-10T00:40:40.296Z,21.26
2018-05-10T00:41:41.448Z,21.26
2018-05-10T00:42:40.325Z,21.28
2018-05-10T00:43:40.328Z,21.32
2018-05-10T00:44:40.323Z,21.25
2018-05-10T00:45:40.394Z,21.23
2018-05-10T00:46:40.426Z,21.25
2018-05-10T00:47:40.384Z,21.22
2018-05-10T00:48:40.408Z,21.30
2018-05-10T00:49:40.399Z,21.30
2018-05-10T00:50:40.404Z,21.30
2018-05-10T00:51:40.457Z,21.17
2018-05-10T00:52:40.435Z,21.19
2018-05-10T00:53:40.447Z,21.17
2018-05-10T00:54:40.472Z,21.20
2018-05-10T00:55:40.476Z,21.23
2018-05-10T00:56:40.606Z,21.22
2018-05-10T00:57:40.510Z,21.17
2018-05-10T00:58:40.569Z,21.20
2018-05-10T00:59:40.528Z,21.23
2018-05-10T01:00:40.535Z,21.19
2018-05-10T01:01:40.554Z,21.17
2018-05-10T01:02:40.572Z,21.15
2018-05-10T01:03:40.604Z,21.20
2018-05-10T01:04:40.617Z,21.19
2018-05-10T01:05:40.645Z,21.23
2018-05-10T01:06:40.638Z,21.22
2018-05-10T01:07:40.695Z,21.19
2018-05-10T01:08:40.664Z,21.17
2018-05-10T01:09:40.674Z,21.13
2018-05-10T01:10:40.689Z,21.11
2018-05-10T01:11:40.690Z,21.14
2018-05-10T01:12:40.749Z,21.13
2018-05-10T01:13:40.721Z,21.15
2018-05-10T01:14:40.725Z,21.23
2018-05-10T01:15:40.789Z,21.19
2018-05-10T01:16:40.756Z,21.23
2018-05-10T01:17:40.776Z,21.20
2018-05-10T01:18:40.808Z,21.23
2018-05-10T01:19:40.816Z,21.22
2018-05-10T01:20:40.877Z,21.23
2018-05-10T01:21:40.836Z,21.23
2018-05-10T01:22:40.841Z,21.23
2018-05-10T01:23:40.868Z,21.28
2018-05-10T01:24:40.867Z,21.25
2018-05-10T01:25:40.916Z,21.22
2018-05-10T01:26:40.924Z,21.22
2018-05-10T01:27:40.898Z,21.22
2018-05-10T01:28:40.926Z,21.15
2018-05-10T01:29:40.932Z,21.17
2018-05-10T01:30:40.937Z,21.17
2018-05-10T01:31:40.993Z,21.23
2018-05-10T01:32:40.979Z,21.20
2018-05-10T01:33:41.019Z,21.13
2018-05-10T01:34:41.005Z,21.07
2018-05-10T01:35:41.011Z,21.13
2018-05-10T01:36:41.063Z,21.15
2018-05-10T01:37:41.055Z,21.11
2018-05-10T01:38:41.048Z,21.08
2018-05-10T01:39:41.068Z,21.14
2018-05-10T01:40:41.076Z,21.14
2018-05-10T01:41:41.154Z,21.00
2018-05-10T01:42:41.173Z,21.15
2018-05-10T01:43:41.132Z,21.13
2018-05-10T01:44:41.129Z,21.04
2018-05-10T01:45:41.172Z,21.20
2018-05-10T01:46:41.164Z,21.04
2018-05-10T01:47:41.205Z,21.11
2018-05-10T01:48:41.202Z,21.05
2018-05-10T01:49:41.219Z,21.07
2018-05-10T01:50:41.211Z,21.10
2018-05-10T01:51:41.229Z,21.04
2018-05-10T01:52:41.290Z,21.01
2018-05-10T01:53:41.326Z,21.03
2018-05-10T01:54:41.263Z,21.13
2018-05-10T01:55:41.279Z,21.07
2018-05-10T01:56:41.303Z,21.01
2018-05-10T01:57:41.333Z,20.88
2018-05-10T01:58:41.359Z,20.96
2018-05-10T01:59:41.344Z,21.03
2018-05-10T02:00:41.406Z,20.93
2018-05-10T02:01:41.371Z,20.95
2018-05-10T02:02:41.378Z,21.01
2018-05-10T02:03:41.394Z,20.88
2018-05-10T02:04:41.407Z,20.92
2018-05-10T02:05:41.483Z,20.98
2018-05-10T02:06:41.433Z,21.01
2018-05-10T02:07:41.465Z,20.93
2018-05-10T02:08:41.462Z,20.75
2018-05-10T02:09:41.482Z,20.75
2018-05-10T02:10:41.517Z,20.73
2018-05-10T02:11:41.495Z,20.77
2018-05-10T02:12:41.512Z,20.78
2018-05-10T02:13:41.536Z,20.77
2018-05-10T02:14:41.595Z,20.75
2018-05-10T02:15:41.603Z,20.77
2018-05-10T02:16:41.570Z,20.78
2018-05-10T02:17:41.580Z,20.70
2018-05-10T02:18:41.595Z,20.73
2018-05-10T02:19:41.599Z,20.75
2018-05-10T02:20:41.655Z,20.77
2018-05-10T02:21:41.676Z,20.59
2018-05-10T02:22:41.665Z,20.60
2018-05-10T02:23:41.658Z,20.60
2018-05-10T02:24:41.678Z,20.64
2018-05-10T02:25:41.676Z,20.60
2018-05-10T02:26:41.734Z,20.63
2018-05-10T02:27:41.705Z,20.63
2018-05-10T02:28:41.760Z,20.63
2018-05-10T02:29:41.782Z,20.68
2018-05-10T02:30:41.760Z,20.64
2018-05-10T02:31:41.757Z,20.64
2018-05-10T02:32:41.823Z,20.63
2018-05-10T02:33:41.789Z,20.59
2018-05-10T02:34:41.811Z,20.67
2018-05-10T02:35:41.821Z,20.63
2018-05-10T02:36:41.831Z,20.55
2018-05-10T02:37:41.903Z,20.53
2018-05-10T02:38:41.882Z,20.60
2018-05-10T02:39:41.873Z,20.70
2018-05-10T02:40:41.921Z,20.55
2018-05-10T02:41:41.899Z,20.67
2018-05-10T02:42:41.900Z,20.56
2018-05-10T02:43:41.955Z,20.66
2018-05-10T02:44:41.966Z,20.49
2018-05-10T02:45:41.942Z,20.53
2018-05-10T02:46:41.955Z,20.50
2018-05-10T02:47:41.979Z,20.53
2018-05-10T02:48:41.990Z,20.58
2018-05-10T02:49:42.033Z,20.58
2018-05-10T02:50:42.017Z,20.56
2018-05-10T02:51:42.070Z,20.52
2018-05-10T02:52:42.038Z,20.64
2018-05-10T02:53:42.060Z,20.55
2018-05-10T02:54:42.065Z,20.64
2018-05-10T02:55:42.080Z,20.66
2018-05-10T02:56:42.127Z,20.67
2018-05-10T02:57:42.099Z,20.60
2018-05-10T02:58:42.113Z,20.59
2018-05-10T02:59:42.173Z,20.60
2018-05-10T03:00:42.145Z,20.67
2018-05-10T03:01:42.215Z,20.74
2018-05-10T03:02:47.485Z,20.60
2018-05-10T03:03:42.206Z,20.64
2018-05-10T03:04:42.297Z,20.58
2018-05-10T03:05:42.214Z,20.60
2018-05-10T03:06:42.229Z,20.71
2018-05-10T03:07:42.337Z,20.70
2018-05-10T03:08:42.269Z,20.66
2018-05-10T03:09:42.262Z,20.73
2018-05-10T03:10:42.288Z,20.71
2018-05-10T03:11:42.288Z,20.71
2018-05-10T03:12:42.296Z,20.74
2018-05-10T03:13:42.359Z,20.75
2018-05-10T03:14:42.333Z,20.71
2018-05-10T03:15:42.336Z,20.74
2018-05-10T03:16:42.392Z,20.78
2018-05-10T03:17:42.380Z,20.75
2018-05-10T03:18:42.406Z,20.67
2018-05-10T03:19:42.398Z,20.67
2018-05-10T03:20:42.460Z,20.66
2018-05-10T03:21:42.429Z,20.67
2018-05-10T03:22:42.442Z,20.64
2018-05-10T03:23:42.444Z,20.59
2018-05-10T03:24:42.467Z,20.55
2018-05-10T03:25:42.535Z,20.64
2018-05-10T03:26:42.484Z,20.59
2018-05-10T03:27:42.503Z,20.66
2018-05-10T03:28:42.509Z,20.68
2018-05-10T03:29:42.523Z,20.59
2018-05-10T03:30:42.574Z,20.71
2018-05-10T03:31:42.593Z,20.63
2018-05-10T03:32:42.602Z,20.66
2018-05-10T03:33:42.596Z,20.64
2018-05-10T03:34:42.593Z,20.67
2018-05-10T03:35:42.664Z,20.70
2018-05-10T03:36:42.652Z,20.73
2018-05-10T03:37:42.637Z,20.64
2018-05-10T03:38:42.648Z,20.63
2018-05-10T03:39:42.668Z,20.59
2018-05-10T03:40:42.731Z,20.70
2018-05-10T03:41:42.688Z,20.75
2018-05-10T03:42:42.753Z,20.73
2018-05-10T03:43:42.714Z,20.67
2018-05-10T03:44:42.762Z,20.78
2018-05-10T03:45:42.745Z,20.77
2018-05-10T03:46:42.756Z,20.77
2018-05-10T03:47:42.804Z,20.78
2018-05-10T03:48:42.790Z,20.78
2018-05-10T03:49:42.794Z,20.71
2018-05-10T03:50:42.809Z,20.60
2018-05-10T03:51:42.831Z,20.66
2018-05-10T03:52:42.868Z,20.70
2018-05-10T03:53:42.896Z,20.60
2018-05-10T03:54:42.864Z,20.64
2018-05-10T03:55:42.863Z,20.59
2018-05-10T03:56:42.898Z,20.66
2018-05-10T03:57:42.903Z,20.59
2018-05-10T03:58:42.959Z,20.64
2018-05-10T03:59:42.918Z,20.66
2018-05-10T04:00:42.937Z,20.58
2018-05-10T04:01:42.949Z,20.56
2018-05-10T04:02:42.978Z,20.58
2018-05-10T04:03:43.020Z,20.49
2018-05-10T04:04:43.002Z,20.44
2018-05-10T04:05:42.998Z,20.37
2018-05-10T04:06:43.027Z,20.48
2018-05-10T04:07:43.042Z,20.46
2018-05-10T04:08:43.088Z,20.46
2018-05-10T04:09:43.087Z,20.49
2018-05-10T04:10:43.063Z,20.48
2018-05-10T04:11:43.119Z,20.48
2018-05-10T04:12:43.096Z,20.49
2018-05-10T04:13:43.132Z,20.52
2018-05-10T04:14:43.129Z,20.39
2018-05-10T04:15:43.128Z,20.53
2018-05-10T04:16:43.192Z,20.48
2018-05-10T04:17:43.154Z,20.48
2018-05-10T04:18:43.188Z,20.46
2018-05-10T04:19:43.179Z,20.48
2018-05-10T04:20:43.206Z,20.46
2018-05-10T04:21:43.250Z,20.40
2018-05-10T04:22:43.237Z,20.48
2018-05-10T04:23:43.237Z,20.52
2018-05-10T04:24:43.288Z,20.50
2018-05-10T04:25:43.269Z,20.46
2018-05-10T04:26:43.270Z,20.50
2018-05-10T04:27:43.355Z,20.50
2018-05-10T04:28:43.339Z,20.58
2018-05-10T04:29:43.326Z,20.50
2018-05-10T04:30:43.344Z,20.60
2018-05-10T04:31:43.358Z,20.56
2018-05-10T04:32:43.390Z,20.55
2018-05-10T04:33:43.366Z,20.64
2018-05-10T04:34:43.377Z,20.59
2018-05-10T04:35:43.415Z,20.64
2018-05-10T04:36:43.423Z,20.70
2018-05-10T04:37:43.538Z,20.68
2018-05-10T04:38:43.447Z,20.73
2018-05-10T04:39:43.469Z,20.68
2018-05-10T04:40:43.462Z,20.68
2018-05-10T04:41:43.481Z,20.75
2018-05-10T04:42:43.481Z,20.71
2018-05-10T04:43:43.532Z,20.71
2018-05-10T04:44:43.519Z,20.59
2018-05-10T04:45:43.532Z,20.66
2018-05-10T04:46:43.572Z,20.68
2018-05-10T04:47:43.562Z,20.77
2018-05-10T04:48:43.607Z,20.70
2018-05-10T04:49:43.591Z,20.83
2018-05-10T04:50:43.738Z,20.83
2018-05-10T04:51:43.617Z,20.77
2018-05-10T04:52:43.629Z,20.73
2018-05-10T04:53:43.641Z,20.71
2018-05-10T04:54:43.660Z,20.70
2018-05-10T04:55:43.700Z,20.75
2018-05-10T04:56:43.707Z,20.77
2018-05-10T04:57:43.698Z,20.78
2018-05-10T04:58:43.703Z,20.75
2018-05-10T04:59:43.705Z,20.80
2018-05-10T05:00:43.738Z,20.70
2018-05-10T05:01:43.779Z,20.73
2018-05-10T05:02:43.751Z,20.73
2018-05-10T05:03:43.763Z,20.75
2018-05-10T05:04:43.783Z,20.78
2018-05-10T05:05:43.815Z,20.80
2018-05-10T05:06:43.868Z,20.80
2018-05-10T05:07:43.828Z,20.74
2018-05-10T05:08:43.902Z,20.78
2018-05-10T05:09:43.859Z,20.82
2018-05-10T05:10:43.872Z,20.77
2018-05-10T05:11:43.906Z,20.71
2018-05-10T05:12:43.905Z,20.80
2018-05-10T05:13:43.954Z,20.82
2018-05-10T05:14:43.927Z,20.78
2018-05-10T05:15:43.925Z,20.78
2018-05-10T05:16:43.951Z,20.78
2018-05-10T05:17:43.970Z,20.90
2018-05-10T05:18:44.005Z,20.92
2018-05-10T05:19:43.973Z,20.83
2018-05-10T05:20:44.020Z,20.78
2018-05-10T05:21:44.006Z,20.80
2018-05-10T05:22:44.018Z,20.77
2018-05-10T05:23:44.043Z,20.78
2018-05-10T05:24:44.071Z,20.80
2018-05-10T05:25:44.098Z,20.78
2018-05-10T05:26:44.070Z,20.85
2018-05-10T05:27:44.089Z,20.82
2018-05-10T05:28:44.090Z,20.80
2018-05-10T05:29:44.150Z,20.86
2018-05-10T05:30:44.135Z,20.92
2018-05-10T05:31:44.202Z,20.88
2018-05-10T05:32:44.248Z,20.92
2018-05-10T05:33:44.189Z,20.90
2018-05-10T05:34:44.233Z,20.93
2018-05-10T05:35:44.196Z,20.90
2018-05-10T05:36:44.205Z,20.88
2018-05-10T05:37:44.218Z,20.89
2018-05-10T05:38:44.412Z,20.95
2018-05-10T05:39:44.534Z,20.93
2018-05-10T05:40:44.263Z,20.77
2018-05-10T05:41:44.281Z,20.95
2018-05-10T05:42:44.303Z,20.83
2018-05-10T05:43:44.289Z,20.93
2018-05-10T05:44:44.445Z,20.95
2018-05-10T05:45:44.358Z,20.88
2018-05-10T05:46:44.353Z,20.98
2018-05-10T05:47:44.362Z,20.93
2018-05-10T05:48:44.372Z,21.05
2018-05-10T05:49:44.427Z,21.03
2018-05-10T05:50:44.383Z,21.04
2018-05-10T05:51:44.398Z,21.05
2018-05-10T05:52:44.423Z,21.07
2018-05-10T05:53:44.452Z,21.17
2018-05-10T05:54:44.610Z,21.10
2018-05-10T05:55:44.469Z,21.11
2018-05-10T05:56:44.475Z,21.20
2018-05-10T05:57:44.494Z,21.14
2018-05-10T05:58:44.599Z,21.19
2018-05-10T05:59:44.553Z,21.26
2018-05-10T06:00:44.553Z,21.26
2018-05-10T06:01:44.539Z,21.20
2018-05-10T06:02:44.646Z,21.30
2018-05-10T06:03:44.589Z,21.29
2018-05-10T06:04:44.589Z,21.40
2018-05-10T06:05:44.594Z,21.48
2018-05-10T06:06:44.680Z,21.47
2018-05-10T06:07:44.650Z,21.56
2018-05-10T06:08:44.649Z,21.47
2018-05-10T06:09:44.668Z,21.50
2018-05-10T06:10:44.671Z,21.48
2018-05-10T06:11:44.683Z,21.51
2018-05-10T06:12:44.733Z,21.62
2018-05-10T06:13:44.746Z,21.65
2018-05-10T06:14:44.722Z,21.63
2018-05-10T06:15:44.806Z,21.63
2018-05-10T06:16:44.783Z,21.70
2018-05-10T06:17:44.773Z,21.72
2018-05-10T06:18:44.831Z,21.78
2018-05-10T06:19:44.815Z,21.83
2018-05-10T06:20:44.844Z,21.84
2018-05-10T06:21:44.818Z,21.84
2018-05-10T06:22:44.821Z,21.88
2018-05-10T06:23:44.839Z,21.89
2018-05-10T06:24:44.891Z,21.99
2018-05-10T06:25:44.906Z,21.92
2018-05-10T06:26:44.888Z,22.07
2018-05-10T06:27:44.941Z,22.08
2018-05-10T06:28:44.903Z,22.10
2018-05-10T06:29:44.920Z,22.18
2018-05-10T06:30:44.947Z,22.21
2018-05-10T06:31:44.966Z,22.19
2018-05-10T06:32:45.009Z,22.15
2018-05-10T06:33:44.992Z,22.22
2018-05-10T06:34:45.043Z,22.16
2018-05-10T06:35:45.002Z,22.22
2018-05-10T06:36:45.028Z,22.18
2018-05-10T06:37:45.089Z,22.23
2018-05-10T06:38:45.068Z,22.21
2018-05-10T06:39:45.072Z,22.34
2018-05-10T06:40:45.084Z,22.34
2018-05-10T06:41:45.103Z,22.43
2018-05-10T06:42:45.175Z,22.52
2018-05-10T06:43:45.120Z,22.56
2018-05-10T06:44:45.168Z,22.49
2018-05-10T06:45:45.141Z,22.62
2018-05-10T06:46:45.170Z,22.62
2018-05-10T06:47:45.180Z,22.63
2018-05-10T06:48:45.197Z,22.65
2018-05-10T06:49:45.247Z,22.74
2018-05-10T06:50:45.224Z,22.68
2018-05-10T06:51:45.271Z,22.83
2018-05-10T06:52:45.252Z,22.74
2018-05-10T06:53:45.292Z,22.84
2018-05-10T06:54:45.340Z,22.80
2018-05-10T06:55:45.300Z,22.86
2018-05-10T06:56:45.307Z,22.92
2018-05-10T06:57:45.339Z,22.81
2018-05-10T06:58:45.331Z,22.86
2018-05-10T06:59:45.384Z,22.93
2018-05-10T07:00:45.391Z,22.98
2018-05-10T07:01:45.395Z,22.91
2018-05-10T07:02:45.399Z,22.98
2018-05-10T07:03:45.412Z,23.07
2018-05-10T07:04:45.431Z,23.08
2018-05-10T07:05:45.467Z,23.16
2018-05-10T07:06:45.457Z,23.23
2018-05-10T07:07:45.501Z,23.29
2018-05-10T07:08:45.492Z,23.29
2018-05-10T07:09:45.563Z,23.32
2018-05-10T07:10:45.512Z,23.32
2018-05-10T07:11:45.519Z,23.33
2018-05-10T07:12:45.602Z,23.39
2018-05-10T07:13:45.553Z,23.42
2018-05-10T07:14:45.568Z,23.34
2018-05-10T07:15:45.604Z,23.44
2018-05-10T07:16:45.604Z,23.51
2018-05-10T07:17:45.662Z,23.40
2018-05-10T07:18:45.665Z,23.42
2018-05-10T07:19:45.671Z,23.56
2018-05-10T07:20:45.660Z,23.39
2018-05-10T07:21:45.671Z,23.47
2018-05-10T07:22:45.688Z,23.42
2018-05-10T07:23:45.749Z,23.39
2018-05-10T07:24:45.713Z,23.47
2018-05-10T07:25:45.736Z,23.55
2018-05-10T07:26:45.739Z,23.49
2018-05-10T07:27:45.775Z,23.58
2018-05-10T07:28:45.827Z,23.51
2018-05-10T07:29:45.782Z,23.55
2018-05-10T07:30:45.837Z,23.54
2018-05-10T07:31:45.826Z,23.63
2018-05-10T07:32:45.830Z,23.64
2018-05-10T07:33:45.879Z,23.70
2018-05-10T07:34:45.889Z,23.64
2018-05-10T07:35:45.895Z,23.70
2018-05-10T07:36:45.902Z,23.73
2018-05-10T07:37:45.953Z,23.79
2018-05-10T07:38:45.951Z,23.84
2018-05-10T07:39:45.964Z,23.91
2018-05-10T07:40:45.950Z,23.95
2018-05-10T07:41:45.960Z,24.07
2018-05-10T07:42:45.988Z,23.94
2018-05-10T07:43:46.080Z,23.94
2018-05-10T07:44:46.053Z,23.89
2018-05-10T07:45:46.038Z,24.04
2018-05-10T07:46:46.091Z,24.03
2018-05-10T07:47:46.075Z,24.03
2018-05-10T07:48:46.075Z,24.22
2018-05-10T07:49:46.090Z,24.18
2018-05-10T07:50:46.100Z,24.16
2018-05-10T07:51:46.205Z,24.19
2018-05-10T07:52:46.131Z,24.14
2018-05-10T07:53:46.176Z,24.25
2018-05-10T07:54:46.177Z,24.25
2018-05-10T07:55:46.188Z,24.21
2018-05-10T07:56:46.242Z,24.18
2018-05-10T07:57:46.221Z,24.16
2018-05-10T07:58:46.223Z,24.32
2018-05-10T07:59:46.251Z,24.28
2018-05-10T08:00:46.312Z,24.38
2018-05-10T08:01:46.269Z,24.40
2018-05-10T08:02:46.288Z,24.38
2018-05-10T08:03:46.315Z,24.44
2018-05-10T08:04:46.322Z,24.46
2018-05-10T08:05:46.374Z,24.50
2018-05-10T08:06:46.403Z,24.48
2018-05-10T08:07:46.373Z,24.48
2018-05-10T08:08:46.383Z,24.59
2018-05-10T08:09:46.405Z,24.55
2018-05-10T08:10:46.441Z,24.68
2018-05-10T08:11:46.458Z,24.68
2018-05-10T08:12:46.457Z,24.65
2018-05-10T08:13:46.457Z,24.66
2018-05-10T08:14:46.471Z,24.68
2018-05-10T08:15:46.502Z,24.77
2018-05-10T08:16:46.553Z,24.69
2018-05-10T08:17:46.525Z,24.71
2018-05-10T08:18:46.552Z,24.74
2018-05-10T08:19:46.568Z,24.71
2018-05-10T08:20:46.567Z,24.66
2018-05-10T08:21:46.618Z,24.71
2018-05-10T08:22:46.599Z,24.75
2018-05-10T08:23:46.614Z,24.62
2018-05-10T08:24:46.634Z,24.65
2018-05-10T08:25:46.696Z,24.69
2018-05-10T08:26:46.706Z,24.75
2018-05-10T08:27:46.675Z,24.79
2018-05-10T08:28:46.692Z,24.82
2018-05-10T08:29:46.696Z,24.74
2018-05-10T08:30:46.723Z,24.77
2018-05-10T08:31:46.764Z,24.69
2018-05-10T08:32:46.763Z,24.77
2018-05-10T08:33:46.811Z,24.75
2018-05-10T08:34:46.807Z,24.69
2018-05-10T08:35:46.821Z,24.74
2018-05-10T08:36:46.947Z,24.66
2018-05-10T08:37:46.838Z,24.84
2018-05-10T08:38:46.892Z,24.89
2018-05-10T08:39:46.868Z,24.85
2018-05-10T08:40:46.869Z,24.81
2018-05-10T08:41:46.892Z,24.89
2018-05-10T08:42:46.897Z,24.81
2018-05-10T08:43:46.947Z,24.74
2018-05-10T08:44:46.968Z,24.92
2018-05-10T08:45:47.011Z,24.85
2018-05-10T08:46:46.961Z,24.92
2018-05-10T08:47:46.977Z,24.93
2018-05-10T08:48:46.997Z,24.97
2018-05-10T08:49:47.034Z,25.01
2018-05-10T08:50:47.085Z,25.14
2018-05-10T08:51:47.080Z,25.21
2018-05-10T08:52:47.066Z,25.21
2018-05-10T08:53:47.070Z,25.19
2018-05-10T08:54:47.085Z,25.12
2018-05-10T08:55:47.144Z,25.12
2018-05-10T08:56:47.149Z,25.11
2018-05-10T08:57:47.136Z,25.00
2018-05-10T08:58:47.165Z,25.00
2018-05-10T08:59:47.187Z,24.97
2018-05-10T09:00:47.274Z,25.12
2018-05-10T09:01:47.219Z,25.06
2018-05-10T09:02:47.233Z,24.99
2018-05-10T09:03:47.244Z,25.11
2018-05-10T09:04:47.276Z,25.00
2018-05-10T09:05:47.296Z,25.11
2018-05-10T09:06:47.316Z,25.12
2018-05-10T09:07:47.290Z,25.16
2018-05-10T09:08:47.323Z,25.21
2018-05-10T09:09:47.324Z,25.19
2018-05-10T09:10:47.336Z,25.22
2018-05-10T09:11:47.390Z,25.18
2018-05-10T09:12:47.411Z,25.26
2018-05-10T09:13:47.408Z,25.15
2018-05-10T09:14:47.405Z,25.26
2018-05-10T09:15:47.443Z,25.22
2018-05-10T09:16:47.443Z,25.22
2018-05-10T09:17:47.491Z,25.26
2018-05-10T09:18:47.461Z,25.21
2018-05-10T09:19:47.512Z,25.21
2018-05-10T09:20:47.504Z,25.24
2018-05-10T09:21:47.514Z,25.25
2018-05-10T09:22:47.536Z,25.18
2018-05-10T09:23:47.553Z,25.18
2018-05-10T09:24:47.599Z,25.11
2018-05-10T09:25:47.584Z,25.24
2018-05-10T09:26:47.615Z,25.22
2018-05-10T09:27:47.610Z,25.22
2018-05-10T09:28:47.633Z,25.26
2018-05-10T09:29:47.685Z,25.24
2018-05-10T09:30:47.688Z,25.29
2018-05-10T09:31:47.692Z,25.25
2018-05-10T09:32:47.696Z,25.34
2018-05-10T09:33:47.768Z,25.26
2018-05-10T09:34:47.788Z,25.25
2018-05-10T09:35:47.737Z,25.26
2018-05-10T09:36:47.769Z,25.22
2018-05-10T09:37:47.770Z,25.19
2018-05-10T09:38:47.789Z,25.25
2018-05-10T09:39:47.836Z,25.29
2018-05-10T09:40:47.861Z,25.34
2018-05-10T09:41:47.860Z,25.25
2018-05-10T09:42:47.852Z,25.31
2018-05-10T09:43:47.861Z,25.31
2018-05-10T09:44:47.893Z,25.26
2018-05-10T09:45:47.947Z,25.26
2018-05-10T09:46:47.910Z,25.18
2018-05-10T09:47:47.922Z,25.25
2018-05-10T09:48:47.955Z,25.30
2018-05-10T09:49:47.981Z,25.24
2018-05-10T09:50:48.026Z,25.24
2018-05-10T09:51:47.990Z,25.22
2018-05-10T09:52:48.047Z,25.36
2018-05-10T09:53:48.015Z,25.34
2018-05-10T09:54:48.041Z,25.36
2018-05-10T09:55:48.047Z,25.29
2018-05-10T09:56:48.112Z,25.34
2018-05-10T09:57:48.076Z,25.34
2018-05-10T09:58:48.101Z,25.26
2018-05-10T09:59:48.140Z,25.26
2018-05-10T10:00:48.158Z,25.25
2018-05-10T10:01:48.187Z,25.43
2018-05-10T10:02:48.172Z,25.40
2018-05-10T10:03:48.188Z,25.37
2018-05-10T10:04:48.219Z,25.40
2018-05-10T10:05:48.213Z,25.44
2018-05-10T10:06:48.247Z,25.37
2018-05-10T10:07:48.242Z,25.41
2018-05-10T10:08:48.254Z,25.46
2018-05-10T10:09:48.307Z,25.51
2018-05-10T10:10:48.299Z,25.58
2018-05-10T10:11:48.334Z,25.56
2018-05-10T10:12:48.317Z,25.56
2018-05-10T10:13:48.348Z,25.55
2018-05-10T10:14:48.393Z,25.54
2018-05-10T10:15:48.451Z,25.54
2018-05-10T10:16:48.400Z,25.58
2018-05-10T10:17:48.405Z,25.49
2018-05-10T10:18:48.476Z,25.52
2018-05-10T10:19:48.459Z,25.46
2018-05-10T10:20:48.446Z,25.56
2018-05-10T10:21:48.465Z,25.59
2018-05-10T10:22:48.478Z,25.63
2018-05-10T10:23:48.563Z,25.59
2018-05-10T10:24:48.520Z,25.66
2018-05-10T10:25:48.530Z,25.56
2018-05-10T10:26:48.563Z,25.59
2018-05-10T10:27:48.559Z,25.56
2018-05-10T10:28:48.653Z,25.58
2018-05-10T10:29:48.629Z,25.66
2018-05-10T10:30:48.620Z,25.73
2018-05-10T10:31:48.658Z,25.62
2018-05-10T10:32:48.643Z,25.68
2018-05-10T10:33:48.665Z,25.73
2018-05-10T10:34:48.695Z,25.66
2018-05-10T10:35:48.700Z,25.66
2018-05-10T10:36:48.739Z,25.71
2018-05-10T10:37:48.726Z,25.74
2018-05-10T10:38:48.744Z,25.76
2018-05-10T10:39:48.763Z,25.71
2018-05-10T10:40:48.762Z,25.76
2018-05-10T10:41:48.812Z,25.80
2018-05-10T10:42:48.820Z,25.78
2018-05-10T10:43:48.868Z,25.68
2018-05-10T10:44:48.844Z,25.73
2018-05-10T10:45:48.861Z,25.78
2018-05-10T10:46:48.856Z,25.80
2018-05-10T10:47:48.885Z,25.85
2018-05-10T10:48:48.932Z,25.80
2018-05-10T10:49:48.914Z,25.85
2018-05-10T10:50:48.932Z,25.83
2018-05-10T10:51:48.970Z,25.92
2018-05-10T10:52:48.967Z,25.95
2018-05-10T10:53:49.041Z,25.99
2018-05-10T10:54:48.994Z,26.01
2018-05-10T10:55:48.996Z,25.93
2018-05-10T10:56:49.075Z,25.93
2018-05-10T10:57:49.031Z,25.96
2018-05-10T10:58:49.103Z,25.99
2018-05-10T10:59:49.082Z,25.98
2018-05-10T11:00:49.115Z,25.92
2018-05-10T11:01:49.164Z,26.03
2018-05-10T11:02:49.114Z,25.93
2018-05-10T11:03:49.173Z,25.99
2018-05-10T11:04:49.175Z,26.03
2018-05-10T11:05:49.194Z,26.01
2018-05-10T11:06:49.195Z,26.03
2018-05-10T11:07:49.235Z,26.01
2018-05-10T11:08:49.325Z,25.99
2018-05-10T11:09:49.251Z,25.91
2018-05-10T11:10:49.307Z,26.04
2018-05-10T11:11:49.261Z,26.01
2018-05-10T11:12:49.277Z,26.01
2018-05-10T11:13:49.305Z,25.99
2018-05-10T11:14:49.321Z,25.91
2018-05-10T11:15:49.401Z,25.89
2018-05-10T11:16:49.450Z,25.99
2018-05-10T11:17:49.368Z,26.04
2018-05-10T11:18:49.388Z,26.07
2018-05-10T11:19:49.420Z,26.11
2018-05-10T11:20:49.550Z,26.22
2018-05-10T11:21:49.495Z,26.11
2018-05-10T11:22:49.445Z,26.29
2018-05-10T11:23:49.466Z,26.29
2018-05-10T11:24:49.488Z,26.37
2018-05-10T11:25:49.554Z,26.39
2018-05-10T11:26:49.522Z,26.31
2018-05-10T11:27:49.555Z,26.33
2018-05-10T11:28:49.585Z,26.34
2018-05-10T11:29:49.566Z,26.37
2018-05-10T11:30:49.578Z,26.31
2018-05-10T11:31:49.590Z,26.27
2018-05-10T11:32:49.640Z,26.41
2018-05-10T11:33:49.680Z,26.44
2018-05-10T11:34:49.650Z,26.44
2018-05-10T11:35:49.687Z,26.48
2018-05-10T11:36:49.673Z,26.53
2018-05-10T11:37:49.701Z,26.55
2018-05-10T11:38:49.762Z,26.56
2018-05-10T11:39:49.740Z,26.60
2018-05-10T11:40:49.781Z,26.68
2018-05-10T11:41:49.779Z,26.82
2018-05-10T11:42:49.796Z,26.70
2018-05-10T11:43:49.806Z,26.61
2018-05-10T11:44:49.860Z,26.67
2018-05-10T11:45:49.836Z,26.70
2018-05-10T11:46:49.852Z,26.79
2018-05-10T11:47:49.865Z,26.82
2018-05-10T11:48:49.897Z,26.85
2018-05-10T11:49:50.053Z,26.83
2018-05-10T11:50:49.928Z,26.82
2018-05-10T11:51:49.937Z,26.98
2018-05-10T11:52:49.947Z,27.00
2018-05-10T11:53:50.007Z,27.00
2018-05-10T11:54:50.035Z,27.01
2018-05-10T11:55:50.056Z,27.00
2018-05-10T11:56:50.014Z,26.98
2018-05-10T11:57:50.031Z,26.96
2018-05-10T11:58:50.065Z,26.96
2018-05-10T11:59:50.088Z,26.93
2018-05-10T12:00:50.148Z,27.04
2018-05-10T12:01:50.109Z,27.11
2018-05-10T12:02:50.128Z,27.15
2018-05-10T12:03:50.153Z,27.22
2018-05-10T12:04:50.173Z,27.22
2018-05-10T12:05:50.239Z,27.23
2018-05-10T12:06:50.189Z,27.25
2018-05-10T12:07:50.200Z,27.30
2018-05-10T12:08:50.243Z,27.13
2018-05-10T12:09:50.250Z,27.30
2018-05-10T12:10:50.298Z,27.30
2018-05-10T12:11:50.314Z,27.35
2018-05-10T12:12:50.287Z,27.28
2018-05-10T12:13:50.322Z,27.28
2018-05-10T12:14:50.327Z,27.33
2018-05-10T12:15:50.343Z,27.30
2018-05-10T12:16:50.400Z,27.37
2018-05-10T12:17:50.379Z,27.26
2018-05-10T12:18:50.406Z,27.33
2018-05-10T12:19:50.416Z,27.43
2018-05-10T12:20:50.429Z,27.26
2018-05-10T12:21:50.482Z,27.35
2018-05-10T12:22:50.469Z,27.40
2018-05-10T12:23:50.502Z,27.34
2018-05-10T12:24:50.496Z,27.38
2018-05-10T12:25:50.511Z,27.41
2018-05-10T12:26:50.588Z,27.40
2018-05-10T12:27:50.579Z,27.37
2018-05-10T12:28:50.566Z,27.45
2018-05-10T12:29:50.643Z,27.43
2018-05-10T12:30:50.599Z,27.41
2018-05-10T12:31:50.623Z,27.45
2018-05-10T12:32:50.640Z,27.37
2018-05-10T12:33:50.663Z,27.47
2018-05-10T12:34:50.734Z,27.35
2018-05-10T12:35:50.689Z,27.43
2018-05-10T12:36:50.737Z,27.47
2018-05-10T12:37:50.730Z,27.44
2018-05-10T12:38:50.757Z,27.30
2018-05-10T12:39:50.830Z,27.43
2018-05-10T12:40:50.767Z,27.37
2018-05-10T12:41:50.800Z,27.47
2018-05-10T12:42:50.824Z,27.44
2018-05-10T12:43:50.840Z,27.43
2018-05-10T12:44:50.894Z,27.45
2018-05-10T12:45:50.866Z,27.48
2018-05-10T12:46:50.874Z,27.48
2018-05-10T12:47:50.910Z,27.57
2018-05-10T12:48:50.940Z,27.57
2018-05-10T12:49:50.987Z,27.53
2018-05-10T12:50:50.993Z,27.50
2018-05-10T12:51:50.972Z,27.57
2018-05-10T12:52:51.000Z,27.60